VLG16JU LEBL-LERS
Flight info
| Callsign | VLG16JU |
|---|---|
| Flight time | N/A |
| Altitude | 29000 |
| Route | GRAUS M601 POSSY/N0460F290 M601 PPN N10 SSN EBROX1L/07 |
| Aircraft | A320/M-SDE3FGHIRWY/LB1 |
Departure
| Time | N/A |
|---|---|
| Airport | Josep Tarradellas Barcelona-El Prat Airport (LEBL) |
Arrival
| Time | 2026-04-27 14:12 |
|---|---|
| Airport | Reus Airport (LERS) |
| Time | Latitude | Longitude | Altitude | Speed | Heading |
|---|---|---|---|---|---|
| 2026-04-27 13:53 | 41.46449 | -0.49552 | 10382 ft | 303 kts | 118° |
| 2026-04-27 13:53 | 41.45446 | -0.47045 | 10961 ft | 310 kts | 118° |
| 2026-04-27 13:53 | 41.44418 | -0.44477 | 11542 ft | 317 kts | 118° |
| 2026-04-27 13:54 | 41.43372 | -0.41866 | 12122 ft | 322 kts | 118° |
| 2026-04-27 13:54 | 41.42309 | -0.39213 | 12701 ft | 326 kts | 118° |
| 2026-04-27 13:54 | 41.41232 | -0.36531 | 13279 ft | 330 kts | 118° |
| 2026-04-27 13:54 | 41.40142 | -0.33815 | 13729 ft | 337 kts | 118° |
| 2026-04-27 13:55 | 41.39014 | -0.31008 | 13937 ft | 351 kts | 118° |
| 2026-04-27 13:55 | 41.37833 | -0.28074 | 14004 ft | 368 kts | 118° |
| 2026-04-27 13:55 | 41.36599 | -0.25011 | 14010 ft | 381 kts | 118° |
| 2026-04-27 13:55 | 41.35338 | -0.21883 | 14008 ft | 385 kts | 118° |
| 2026-04-27 13:56 | 41.34069 | -0.18738 | 14009 ft | 386 kts | 118° |
| 2026-04-27 13:56 | 41.32800 | -0.15595 | 14009 ft | 386 kts | 118° |
| 2026-04-27 13:56 | 41.31529 | -0.12450 | 14009 ft | 386 kts | 118° |
| 2026-04-27 13:56 | 41.30258 | -0.09304 | 14009 ft | 386 kts | 118° |
| 2026-04-27 13:57 | 41.28986 | -0.06160 | 14009 ft | 386 kts | 118° |
| 2026-04-27 13:57 | 41.27716 | -0.03021 | 14009 ft | 386 kts | 118° |
| 2026-04-27 13:57 | 41.26444 | 0.00122 | 14009 ft | 386 kts | 118° |
| 2026-04-27 13:57 | 41.25424 | 0.03413 | 14007 ft | 386 kts | 104° |
| 2026-04-27 13:58 | 41.25121 | 0.06905 | 14012 ft | 387 kts | 92° |
| 2026-04-27 13:58 | 41.25018 | 0.10541 | 13815 ft | 395 kts | 92° |
| 2026-04-27 13:58 | 41.24924 | 0.14207 | 13424 ft | 397 kts | 92° |
| 2026-04-27 13:58 | 41.24835 | 0.17816 | 13054 ft | 396 kts | 92° |
| 2026-04-27 13:59 | 41.24744 | 0.21513 | 12673 ft | 393 kts | 92° |
| 2026-04-27 13:59 | 41.24652 | 0.25089 | 12301 ft | 391 kts | 92° |
| 2026-04-27 13:59 | 41.24555 | 0.28688 | 11925 ft | 389 kts | 92° |
| 2026-04-27 13:59 | 41.24455 | 0.32259 | 11550 ft | 386 kts | 92° |
| 2026-04-27 14:00 | 41.24357 | 0.35800 | 11175 ft | 383 kts | 92° |
| 2026-04-27 14:00 | 41.24259 | 0.39310 | 10798 ft | 373 kts | 92° |
| 2026-04-27 14:00 | 41.24163 | 0.42705 | 10422 ft | 363 kts | 92° |
| 2026-04-27 14:00 | 41.24069 | 0.46004 | 10048 ft | 354 kts | 92° |
| 2026-04-27 14:01 | 41.23976 | 0.49252 | 9671 ft | 347 kts | 92° |
| 2026-04-27 14:01 | 41.23886 | 0.52395 | 9293 ft | 331 kts | 92° |
| 2026-04-27 14:01 | 41.23799 | 0.55375 | 8919 ft | 314 kts | 92° |
| 2026-04-27 14:01 | 41.23714 | 0.58208 | 8545 ft | 300 kts | 92° |
| 2026-04-27 14:02 | 41.23630 | 0.60939 | 8169 ft | 293 kts | 92° |
| 2026-04-27 14:02 | 41.23546 | 0.63629 | 7794 ft | 290 kts | 92° |
| 2026-04-27 14:02 | 41.23462 | 0.66290 | 7417 ft | 285 kts | 93° |
| 2026-04-27 14:02 | 41.23381 | 0.68875 | 7041 ft | 275 kts | 92° |
| 2026-04-27 14:03 | 41.23328 | 0.70539 | 6792 ft | 269 kts | 93° |
| 2026-04-27 14:03 | 41.23250 | 0.72988 | 6416 ft | 262 kts | 93° |
| 2026-04-27 14:03 | 41.23174 | 0.75376 | 6040 ft | 256 kts | 93° |
| 2026-04-27 14:03 | 41.22841 | 0.77646 | 5904 ft | 250 kts | 116° |
| 2026-04-27 14:04 | 41.21444 | 0.79911 | 5844 ft | 230 kts | 142° |
| 2026-04-27 14:04 | 41.20623 | 0.80787 | 5753 ft | 219 kts | 142° |
| 2026-04-27 14:04 | 41.19486 | 0.82004 | 5657 ft | 201 kts | 142° |
| 2026-04-27 14:04 | 41.18458 | 0.83104 | 5563 ft | 176 kts | 142° |
| 2026-04-27 14:05 | 41.17562 | 0.84061 | 5418 ft | 157 kts | 142° |
| 2026-04-27 14:05 | 41.16723 | 0.84956 | 5289 ft | 153 kts | 142° |
| 2026-04-27 14:05 | 41.15896 | 0.85835 | 5164 ft | 152 kts | 142° |
| 2026-04-27 14:05 | 41.15071 | 0.86708 | 5046 ft | 152 kts | 143° |
| 2026-04-27 14:06 | 41.14240 | 0.87561 | 4912 ft | 150 kts | 144° |
| 2026-04-27 14:06 | 41.13407 | 0.88406 | 4790 ft | 151 kts | 144° |
| 2026-04-27 14:06 | 41.12577 | 0.89246 | 4666 ft | 150 kts | 143° |
| 2026-04-27 14:06 | 41.11758 | 0.90077 | 4540 ft | 150 kts | 143° |
| 2026-04-27 14:07 | 41.10932 | 0.90916 | 4398 ft | 150 kts | 143° |
| 2026-04-27 14:07 | 41.10107 | 0.91752 | 4217 ft | 149 kts | 143° |
| 2026-04-27 14:07 | 41.09283 | 0.92586 | 4017 ft | 148 kts | 143° |
| 2026-04-27 14:07 | 41.08498 | 0.93467 | 3817 ft | 148 kts | 130° |
| 2026-04-27 14:08 | 41.08031 | 0.94680 | 3618 ft | 149 kts | 104° |
| 2026-04-27 14:08 | 41.08019 | 0.96040 | 3409 ft | 150 kts | 77° |
| 2026-04-27 14:08 | 41.08422 | 0.97305 | 3196 ft | 149 kts | 64° |
| 2026-04-27 14:08 | 41.08882 | 0.98536 | 2986 ft | 149 kts | 64° |
| 2026-04-27 14:09 | 41.09338 | 0.99764 | 2781 ft | 148 kts | 64° |
| 2026-04-27 14:09 | 41.09793 | 1.00987 | 2570 ft | 148 kts | 64° |
| 2026-04-27 14:09 | 41.10247 | 1.02209 | 2369 ft | 147 kts | 64° |
| 2026-04-27 14:09 | 41.10697 | 1.03421 | 2159 ft | 147 kts | 64° |
| 2026-04-27 14:10 | 41.11148 | 1.04632 | 1954 ft | 146 kts | 64° |
| 2026-04-27 14:10 | 41.11580 | 1.05850 | 1848 ft | 146 kts | 69° |
| 2026-04-27 14:10 | 41.11945 | 1.07084 | 1807 ft | 145 kts | 69° |
| 2026-04-27 14:10 | 41.12308 | 1.08336 | 1809 ft | 146 kts | 69° |
| 2026-04-27 14:11 | 41.12662 | 1.09604 | 1608 ft | 147 kts | 71° |
| 2026-04-27 14:11 | 41.13015 | 1.10859 | 1260 ft | 144 kts | 70° |
| 2026-04-27 14:11 | 41.13369 | 1.12100 | 1011 ft | 144 kts | 69° |
| 2026-04-27 14:11 | 41.13732 | 1.13334 | 798 ft | 143 kts | 70° |
| 2026-04-27 14:12 | 41.14097 | 1.14563 | 544 ft | 143 kts | 68° |
| 2026-04-27 14:12 | 41.14467 | 1.15783 | 326 ft | 143 kts | 69° |
| 2026-04-27 14:12 | 41.14806 | 1.16944 | 241 ft | 116 kts | 68° |
| 2026-04-27 14:12 | 41.14964 | 1.17483 | 242 ft | 20 kts | 69° |
| 2026-04-27 14:13 | 41.15034 | 1.17590 | 243 ft | 16 kts | 356° |
| 2026-04-27 14:13 | 41.15104 | 1.17558 | 242 ft | 10 kts | 337° |
| 2026-04-27 14:13 | 41.15120 | 1.17548 | 242 ft | 2 kts | 331° |
| 2026-04-27 14:13 | 41.15138 | 1.17524 | 242 ft | 5 kts | 300° |
| 2026-04-27 14:14 | 41.15135 | 1.17470 | 242 ft | 7 kts | 253° |
| 2026-04-27 14:14 | 41.15116 | 1.17395 | 242 ft | 10 kts | 251° |
| 2026-04-27 14:14 | 41.15085 | 1.17295 | 242 ft | 13 kts | 248° |
| 2026-04-27 14:14 | 41.15046 | 1.17168 | 242 ft | 16 kts | 248° |
| 2026-04-27 14:15 | 41.15002 | 1.17015 | 241 ft | 19 kts | 249° |
| 2026-04-27 14:15 | 41.14950 | 1.16837 | 241 ft | 22 kts | 249° |
| 2026-04-27 14:15 | 41.14892 | 1.16636 | 241 ft | 25 kts | 249° |
| 2026-04-27 14:15 | 41.14827 | 1.16415 | 241 ft | 27 kts | 249° |
| 2026-04-27 14:16 | 41.14769 | 1.16219 | 240 ft | 18 kts | 249° |
| 2026-04-27 14:16 | 41.14722 | 1.16055 | 240 ft | 15 kts | 249° |
| 2026-04-27 14:16 | 41.14682 | 1.15917 | 240 ft | 17 kts | 249° |
| 2026-04-27 14:16 | 41.14683 | 1.15832 | 239 ft | 11 kts | 313° |
| 2026-04-27 14:17 | 41.14706 | 1.15816 | 239 ft | 1 kts | 338° |
| 2026-04-27 14:17 | 41.14722 | 1.15807 | 239 ft | 3 kts | 338° |
| 2026-04-27 14:17 | 41.14726 | 1.15805 | 239 ft | 0 kts | 338° |